sensor_id;sensor_type;location;lat;lon;timestamp;P1;durP1;ratioP1;P2;durP2;ratioP2
59207;SDS011;44977;53.132;6.408;2023-02-18T00:03:20;20.23;;;5.13;;
59207;SDS011;44977;53.132;6.408;2023-02-18T00:08:20;16.15;;;4.07;;
59207;SDS011;44977;53.132;6.408;2023-02-18T00:13:21;15.80;;;3.80;;
59207;SDS011;44977;53.132;6.408;2023-02-18T00:18:22;17.85;;;4.57;;
59207;SDS011;44977;53.132;6.408;2023-02-18T00:23:23;17.42;;;4.38;;
59207;SDS011;44977;53.132;6.408;2023-02-18T00:28:23;17.63;;;4.30;;
59207;SDS011;44977;53.132;6.408;2023-02-18T00:33:24;15.75;;;4.55;;
59207;SDS011;44977;53.132;6.408;2023-02-18T00:38:25;16.65;;;3.63;;
59207;SDS011;44977;53.132;6.408;2023-02-18T00:43:26;15.65;;;4.05;;
59207;SDS011;44977;53.132;6.408;2023-02-18T00:48:27;17.63;;;4.00;;
59207;SDS011;44977;53.132;6.408;2023-02-18T00:53:28;14.95;;;3.78;;
59207;SDS011;44977;53.132;6.408;2023-02-18T00:58:29;18.65;;;4.20;;
59207;SDS011;44977;53.132;6.408;2023-02-18T01:03:30;17.80;;;4.15;;
59207;SDS011;44977;53.132;6.408;2023-02-18T01:08:31;15.00;;;4.35;;
59207;SDS011;44977;53.132;6.408;2023-02-18T01:13:32;18.33;;;4.20;;
59207;SDS011;44977;53.132;6.408;2023-02-18T01:18:33;18.13;;;4.82;;
59207;SDS011;44977;53.132;6.408;2023-02-18T01:23:34;19.77;;;4.75;;
59207;SDS011;44977;53.132;6.408;2023-02-18T01:28:37;18.23;;;4.38;;
59207;SDS011;44977;53.132;6.408;2023-02-18T01:33:39;16.52;;;4.60;;
59207;SDS011;44977;53.132;6.408;2023-02-18T01:38:40;14.85;;;4.65;;
59207;SDS011;44977;53.132;6.408;2023-02-18T01:43:40;16.48;;;4.80;;
59207;SDS011;44977;53.132;6.408;2023-02-18T01:48:43;15.85;;;4.70;;
59207;SDS011;44977;53.132;6.408;2023-02-18T01:54:01;17.73;;;5.05;;
59207;SDS011;44977;53.132;6.408;2023-02-18T01:59:13;19.33;;;5.55;;
59207;SDS011;44977;53.132;6.408;2023-02-18T02:04:24;18.48;;;4.93;;
59207;SDS011;44977;53.132;6.408;2023-02-18T02:09:25;16.00;;;4.80;;
59207;SDS011;44977;53.132;6.408;2023-02-18T02:25:21;16.95;;;5.75;;
59207;SDS011;44977;53.132;6.408;2023-02-18T02:36:13;17.02;;;5.15;;
59207;SDS011;44977;53.132;6.408;2023-02-18T02:41:42;17.02;;;5.68;;
59207;SDS011;44977;53.132;6.408;2023-02-18T02:47:06;17.10;;;5.80;;
59207;SDS011;44977;53.132;6.408;2023-02-18T02:52:12;16.05;;;5.82;;
59207;SDS011;44977;53.132;6.408;2023-02-18T03:07:53;19.95;;;6.68;;
59207;SDS011;44977;53.132;6.408;2023-02-18T03:28:53;15.73;;;6.55;;
59207;SDS011;44977;53.132;6.408;2023-02-18T03:34:03;15.18;;;5.93;;
59207;SDS011;44977;53.132;6.408;2023-02-18T03:39:08;15.85;;;5.95;;
59207;SDS011;44977;53.132;6.408;2023-02-18T03:44:13;12.57;;;5.18;;
59207;SDS011;44977;53.132;6.408;2023-02-18T03:49:14;12.13;;;4.80;;
59207;SDS011;44977;53.132;6.408;2023-02-18T03:54:15;13.00;;;4.57;;
59207;SDS011;44977;53.132;6.408;2023-02-18T03:59:15;18.92;;;5.93;;
59207;SDS011;44977;53.132;6.408;2023-02-18T04:04:16;15.93;;;5.38;;
59207;SDS011;44977;53.132;6.408;2023-02-18T04:09:17;15.95;;;6.43;;
59207;SDS011;44977;53.132;6.408;2023-02-18T04:14:17;19.75;;;8.70;;
59207;SDS011;44977;53.132;6.408;2023-02-18T04:19:18;26.08;;;11.20;;
59207;SDS011;44977;53.132;6.408;2023-02-18T04:24:19;26.65;;;14.05;;
59207;SDS011;44977;53.132;6.408;2023-02-18T04:29:19;27.67;;;15.55;;
59207;SDS011;44977;53.132;6.408;2023-02-18T04:34:20;30.52;;;15.88;;
59207;SDS011;44977;53.132;6.408;2023-02-18T04:39:20;26.10;;;16.42;;
59207;SDS011;44977;53.132;6.408;2023-02-18T04:44:21;29.10;;;19.05;;
59207;SDS011;44977;53.132;6.408;2023-02-18T04:49:22;41.25;;;22.00;;
59207;SDS011;44977;53.132;6.408;2023-02-18T04:54:23;34.72;;;22.42;;
59207;SDS011;44977;53.132;6.408;2023-02-18T04:59:23;35.58;;;22.73;;
59207;SDS011;44977;53.132;6.408;2023-02-18T05:04:24;35.30;;;24.00;;
59207;SDS011;44977;53.132;6.408;2023-02-18T05:09:25;38.83;;;25.25;;
59207;SDS011;44977;53.132;6.408;2023-02-18T05:14:25;38.85;;;25.67;;
59207;SDS011;44977;53.132;6.408;2023-02-18T05:19:26;41.35;;;28.02;;
59207;SDS011;44977;53.132;6.408;2023-02-18T05:24:27;45.25;;;30.35;;
59207;SDS011;44977;53.132;6.408;2023-02-18T05:29:27;44.28;;;29.45;;
59207;SDS011;44977;53.132;6.408;2023-02-18T05:34:28;40.28;;;27.33;;
59207;SDS011;44977;53.132;6.408;2023-02-18T05:39:29;36.53;;;24.80;;
59207;SDS011;44977;53.132;6.408;2023-02-18T05:44:29;33.65;;;23.33;;
59207;SDS011;44977;53.132;6.408;2023-02-18T05:49:32;28.63;;;20.33;;
59207;SDS011;44977;53.132;6.408;2023-02-18T05:54:34;30.30;;;19.85;;
59207;SDS011;44977;53.132;6.408;2023-02-18T05:59:35;29.90;;;19.27;;
59207;SDS011;44977;53.132;6.408;2023-02-18T06:04:36;32.72;;;21.45;;
59207;SDS011;44977;53.132;6.408;2023-02-18T06:09:36;31.40;;;19.65;;
59207;SDS011;44977;53.132;6.408;2023-02-18T06:14:37;29.77;;;17.75;;
59207;SDS011;44977;53.132;6.408;2023-02-18T06:19:41;24.02;;;14.63;;
59207;SDS011;44977;53.132;6.408;2023-02-18T06:24:41;21.98;;;13.65;;
59207;SDS011;44977;53.132;6.408;2023-02-18T06:29:42;17.85;;;10.68;;
59207;SDS011;44977;53.132;6.408;2023-02-18T06:34:43;16.33;;;10.85;;
59207;SDS011;44977;53.132;6.408;2023-02-18T06:39:43;16.50;;;11.07;;
59207;SDS011;44977;53.132;6.408;2023-02-18T06:44:44;17.60;;;11.93;;
59207;SDS011;44977;53.132;6.408;2023-02-18T06:49:45;17.65;;;12.07;;
59207;SDS011;44977;53.132;6.408;2023-02-18T06:54:46;20.65;;;14.32;;
59207;SDS011;44977;53.132;6.408;2023-02-18T06:59:46;21.90;;;15.63;;
59207;SDS011;44977;53.132;6.408;2023-02-18T07:04:47;24.00;;;17.52;;
59207;SDS011;44977;53.132;6.408;2023-02-18T07:09:48;28.50;;;18.88;;
59207;SDS011;44977;53.132;6.408;2023-02-18T07:14:48;26.05;;;17.95;;
59207;SDS011;44977;53.132;6.408;2023-02-18T07:19:49;25.98;;;18.02;;
59207;SDS011;44977;53.132;6.408;2023-02-18T07:24:50;25.85;;;17.48;;
59207;SDS011;44977;53.132;6.408;2023-02-18T07:29:52;20.98;;;14.20;;
59207;SDS011;44977;53.132;6.408;2023-02-18T07:34:53;23.60;;;15.27;;
59207;SDS011;44977;53.132;6.408;2023-02-18T07:39:53;22.67;;;13.90;;
59207;SDS011;44977;53.132;6.408;2023-02-18T07:44:54;20.08;;;13.55;;
59207;SDS011;44977;53.132;6.408;2023-02-18T07:49:55;20.33;;;12.43;;
59207;SDS011;44977;53.132;6.408;2023-02-18T07:54:55;20.63;;;13.73;;
59207;SDS011;44977;53.132;6.408;2023-02-18T07:59:56;16.02;;;10.98;;
59207;SDS011;44977;53.132;6.408;2023-02-18T08:04:57;17.23;;;8.98;;
59207;SDS011;44977;53.132;6.408;2023-02-18T08:09:57;14.73;;;8.10;;
59207;SDS011;44977;53.132;6.408;2023-02-18T08:14:58;15.55;;;7.50;;
59207;SDS011;44977;53.132;6.408;2023-02-18T08:19:59;16.35;;;6.97;;
59207;SDS011;44977;53.132;6.408;2023-02-18T08:24:59;14.55;;;5.72;;
59207;SDS011;44977;53.132;6.408;2023-02-18T08:30:00;13.90;;;5.90;;
59207;SDS011;44977;53.132;6.408;2023-02-18T08:35:01;11.82;;;5.25;;
59207;SDS011;44977;53.132;6.408;2023-02-18T08:40:03;12.65;;;5.72;;
59207;SDS011;44977;53.132;6.408;2023-02-18T08:45:04;13.10;;;5.70;;
59207;SDS011;44977;53.132;6.408;2023-02-18T08:50:05;16.02;;;5.80;;
59207;SDS011;44977;53.132;6.408;2023-02-18T08:55:06;10.63;;;5.07;;
59207;SDS011;44977;53.132;6.408;2023-02-18T09:00:07;13.00;;;5.07;;
59207;SDS011;44977;53.132;6.408;2023-02-18T09:05:08;12.70;;;5.13;;
59207;SDS011;44977;53.132;6.408;2023-02-18T09:10:10;12.13;;;4.40;;
59207;SDS011;44977;53.132;6.408;2023-02-18T09:15:10;12.43;;;4.82;;
59207;SDS011;44977;53.132;6.408;2023-02-18T09:20:11;14.80;;;5.25;;
59207;SDS011;44977;53.132;6.408;2023-02-18T09:25:12;14.63;;;4.88;;
59207;SDS011;44977;53.132;6.408;2023-02-18T09:30:13;12.15;;;4.60;;
59207;SDS011;44977;53.132;6.408;2023-02-18T09:35:14;13.65;;;4.18;;
59207;SDS011;44977;53.132;6.408;2023-02-18T09:40:20;13.20;;;4.22;;
59207;SDS011;44977;53.132;6.408;2023-02-18T09:45:28;12.75;;;4.40;;
59207;SDS011;44977;53.132;6.408;2023-02-18T09:50:31;16.67;;;4.28;;
59207;SDS011;44977;53.132;6.408;2023-02-18T09:55:34;14.30;;;4.00;;
59207;SDS011;44977;53.132;6.408;2023-02-18T10:00:39;13.70;;;3.42;;
59207;SDS011;44977;53.132;6.408;2023-02-18T10:11:40;15.13;;;3.42;;
59207;SDS011;44977;53.132;6.408;2023-02-18T10:16:42;16.42;;;3.85;;
59207;SDS011;44977;53.132;6.408;2023-02-18T10:21:45;14.70;;;3.58;;
59207;SDS011;44977;53.132;6.408;2023-02-18T10:26:47;13.23;;;3.40;;
59207;SDS011;44977;53.132;6.408;2023-02-18T10:31:51;13.05;;;3.50;;
59207;SDS011;44977;53.132;6.408;2023-02-18T10:47:38;14.23;;;3.67;;
59207;SDS011;44977;53.132;6.408;2023-02-18T10:52:46;14.82;;;3.75;;
59207;SDS011;44977;53.132;6.408;2023-02-18T10:57:51;15.00;;;3.72;;
59207;SDS011;44977;53.132;6.408;2023-02-18T11:03:01;13.70;;;3.67;;
59207;SDS011;44977;53.132;6.408;2023-02-18T11:08:17;19.77;;;4.05;;
59207;SDS011;44977;53.132;6.408;2023-02-18T11:13:25;13.98;;;3.35;;
59207;SDS011;44977;53.132;6.408;2023-02-18T11:18:29;13.88;;;3.85;;
59207;SDS011;44977;53.132;6.408;2023-02-18T11:23:46;15.68;;;4.32;;
59207;SDS011;44977;53.132;6.408;2023-02-18T11:28:49;12.63;;;3.78;;
59207;SDS011;44977;53.132;6.408;2023-02-18T11:33:52;12.50;;;3.83;;
59207;SDS011;44977;53.132;6.408;2023-02-18T11:38:57;13.95;;;3.85;;
59207;SDS011;44977;53.132;6.408;2023-02-18T11:44:05;14.27;;;3.67;;
59207;SDS011;44977;53.132;6.408;2023-02-18T11:49:20;14.85;;;4.05;;
59207;SDS011;44977;53.132;6.408;2023-02-18T11:54:26;12.95;;;3.80;;
59207;SDS011;44977;53.132;6.408;2023-02-18T11:59:31;16.83;;;4.10;;
59207;SDS011;44977;53.132;6.408;2023-02-18T12:04:40;13.57;;;3.65;;
59207;SDS011;44977;53.132;6.408;2023-02-18T12:09:48;14.77;;;3.92;;
59207;SDS011;44977;53.132;6.408;2023-02-18T12:14:54;15.65;;;3.90;;
59207;SDS011;44977;53.132;6.408;2023-02-18T12:31:18;12.32;;;3.40;;
59207;SDS011;44977;53.132;6.408;2023-02-18T12:36:32;14.45;;;3.75;;
59207;SDS011;44977;53.132;6.408;2023-02-18T12:41:43;16.38;;;3.85;;
59207;SDS011;44977;53.132;6.408;2023-02-18T12:46:55;14.57;;;4.00;;
59207;SDS011;44977;53.132;6.408;2023-02-18T13:08:16;15.02;;;3.03;;
59207;SDS011;44977;53.132;6.408;2023-02-18T13:13:23;12.15;;;2.65;;
59207;SDS011;44977;53.132;6.408;2023-02-18T13:23:40;14.07;;;2.83;;
59207;SDS011;44977;53.132;6.408;2023-02-18T13:29:28;10.93;;;2.85;;
59207;SDS011;44977;53.132;6.408;2023-02-18T13:39:54;14.60;;;3.00;;
59207;SDS011;44977;53.132;6.408;2023-02-18T13:49:57;15.32;;;3.35;;
59207;SDS011;44977;53.132;6.408;2023-02-18T13:54:58;14.57;;;3.55;;
59207;SDS011;44977;53.132;6.408;2023-02-18T14:00:01;15.20;;;3.40;;
59207;SDS011;44977;53.132;6.408;2023-02-18T14:30:29;14.60;;;3.40;;
59207;SDS011;44977;53.132;6.408;2023-02-18T14:35:38;14.65;;;4.22;;
59207;SDS011;44977;53.132;6.408;2023-02-18T14:51:28;16.92;;;4.68;;
59207;SDS011;44977;53.132;6.408;2023-02-18T14:56:36;13.70;;;3.47;;
59207;SDS011;44977;53.132;6.408;2023-02-18T15:01:42;16.40;;;3.50;;
59207;SDS011;44977;53.132;6.408;2023-02-18T15:06:42;16.95;;;3.78;;
59207;SDS011;44977;53.132;6.408;2023-02-18T15:11:46;15.10;;;3.53;;
59207;SDS011;44977;53.132;6.408;2023-02-18T15:16:51;16.77;;;4.18;;
59207;SDS011;44977;53.132;6.408;2023-02-18T15:21:53;15.07;;;3.70;;
59207;SDS011;44977;53.132;6.408;2023-02-18T15:26:57;11.02;;;2.80;;
59207;SDS011;44977;53.132;6.408;2023-02-18T15:32:05;15.05;;;3.67;;
59207;SDS011;44977;53.132;6.408;2023-02-18T15:37:16;13.90;;;3.30;;
59207;SDS011;44977;53.132;6.408;2023-02-18T15:42:21;15.73;;;3.40;;
59207;SDS011;44977;53.132;6.408;2023-02-18T15:47:27;17.35;;;4.10;;
59207;SDS011;44977;53.132;6.408;2023-02-18T15:52:30;18.38;;;4.13;;
59207;SDS011;44977;53.132;6.408;2023-02-18T15:57:33;16.52;;;3.72;;
59207;SDS011;44977;53.132;6.408;2023-02-18T16:02:35;16.15;;;3.70;;
59207;SDS011;44977;53.132;6.408;2023-02-18T16:07:50;14.13;;;3.63;;
59207;SDS011;44977;53.132;6.408;2023-02-18T16:12:53;16.65;;;3.75;;
59207;SDS011;44977;53.132;6.408;2023-02-18T16:17:59;17.00;;;3.80;;
59207;SDS011;44977;53.132;6.408;2023-02-18T16:23:07;15.70;;;4.25;;
59207;SDS011;44977;53.132;6.408;2023-02-18T16:28:12;16.55;;;3.90;;
59207;SDS011;44977;53.132;6.408;2023-02-18T16:33:21;16.48;;;3.83;;
59207;SDS011;44977;53.132;6.408;2023-02-18T16:38:22;17.17;;;3.90;;
59207;SDS011;44977;53.132;6.408;2023-02-18T16:43:25;17.80;;;4.60;;
59207;SDS011;44977;53.132;6.408;2023-02-18T16:53:34;15.48;;;4.03;;
59207;SDS011;44977;53.132;6.408;2023-02-18T16:58:35;22.02;;;4.18;;
59207;SDS011;44977;53.132;6.408;2023-02-18T17:03:36;18.75;;;3.67;;
59207;SDS011;44977;53.132;6.408;2023-02-18T17:08:36;19.05;;;4.05;;
59207;SDS011;44977;53.132;6.408;2023-02-18T17:13:37;18.02;;;4.15;;
59207;SDS011;44977;53.132;6.408;2023-02-18T17:18:38;21.38;;;4.13;;
59207;SDS011;44977;53.132;6.408;2023-02-18T17:23:38;16.80;;;4.10;;
59207;SDS011;44977;53.132;6.408;2023-02-18T17:28:40;18.02;;;4.25;;
59207;SDS011;44977;53.132;6.408;2023-02-18T17:33:40;19.75;;;4.80;;
59207;SDS011;44977;53.132;6.408;2023-02-18T17:38:41;22.63;;;5.15;;
59207;SDS011;44977;53.132;6.408;2023-02-18T17:43:42;18.67;;;4.80;;
59207;SDS011;44977;53.132;6.408;2023-02-18T17:48:43;17.60;;;4.50;;
59207;SDS011;44977;53.132;6.408;2023-02-18T17:53:45;20.25;;;4.80;;
59207;SDS011;44977;53.132;6.408;2023-02-18T17:58:46;19.63;;;4.13;;
59207;SDS011;44977;53.132;6.408;2023-02-18T18:03:47;21.27;;;4.50;;
59207;SDS011;44977;53.132;6.408;2023-02-18T18:08:48;18.58;;;4.70;;
59207;SDS011;44977;53.132;6.408;2023-02-18T18:13:49;19.05;;;5.22;;
59207;SDS011;44977;53.132;6.408;2023-02-18T18:18:54;20.15;;;5.53;;
59207;SDS011;44977;53.132;6.408;2023-02-18T18:23:54;20.08;;;5.63;;
59207;SDS011;44977;53.132;6.408;2023-02-18T18:28:55;17.83;;;5.15;;
59207;SDS011;44977;53.132;6.408;2023-02-18T18:33:56;23.90;;;5.10;;
59207;SDS011;44977;53.132;6.408;2023-02-18T18:38:57;19.02;;;5.00;;
59207;SDS011;44977;53.132;6.408;2023-02-18T18:43:57;18.17;;;5.05;;
59207;SDS011;44977;53.132;6.408;2023-02-18T18:48:58;18.67;;;5.95;;
59207;SDS011;44977;53.132;6.408;2023-02-18T18:53:59;19.75;;;4.90;;
59207;SDS011;44977;53.132;6.408;2023-02-18T18:58:59;20.48;;;5.80;;
59207;SDS011;44977;53.132;6.408;2023-02-18T19:04:00;19.65;;;5.32;;
59207;SDS011;44977;53.132;6.408;2023-02-18T19:09:01;21.33;;;5.82;;
59207;SDS011;44977;53.132;6.408;2023-02-18T19:14:01;22.08;;;6.28;;
59207;SDS011;44977;53.132;6.408;2023-02-18T19:19:02;22.75;;;6.35;;
59207;SDS011;44977;53.132;6.408;2023-02-18T19:24:03;23.42;;;5.78;;
59207;SDS011;44977;53.132;6.408;2023-02-18T19:29:04;19.88;;;6.38;;
59207;SDS011;44977;53.132;6.408;2023-02-18T19:34:04;18.02;;;5.43;;
59207;SDS011;44977;53.132;6.408;2023-02-18T19:39:05;20.17;;;5.18;;
59207;SDS011;44977;53.132;6.408;2023-02-18T19:44:06;18.08;;;6.35;;
59207;SDS011;44977;53.132;6.408;2023-02-18T19:49:06;18.83;;;5.68;;
59207;SDS011;44977;53.132;6.408;2023-02-18T19:54:07;18.00;;;5.20;;
59207;SDS011;44977;53.132;6.408;2023-02-18T19:59:08;19.08;;;5.38;;
59207;SDS011;44977;53.132;6.408;2023-02-18T20:04:08;21.95;;;5.55;;
59207;SDS011;44977;53.132;6.408;2023-02-18T20:09:10;21.25;;;6.88;;
59207;SDS011;44977;53.132;6.408;2023-02-18T20:14:10;19.83;;;6.03;;
59207;SDS011;44977;53.132;6.408;2023-02-18T20:19:11;18.40;;;6.35;;
59207;SDS011;44977;53.132;6.408;2023-02-18T20:24:12;23.30;;;6.80;;
59207;SDS011;44977;53.132;6.408;2023-02-18T20:29:13;17.10;;;6.15;;
59207;SDS011;44977;53.132;6.408;2023-02-18T20:34:13;19.30;;;6.90;;
59207;SDS011;44977;53.132;6.408;2023-02-18T20:39:15;21.48;;;6.78;;
59207;SDS011;44977;53.132;6.408;2023-02-18T20:44:17;21.35;;;6.82;;
59207;SDS011;44977;53.132;6.408;2023-02-18T20:49:19;20.90;;;7.13;;
59207;SDS011;44977;53.132;6.408;2023-02-18T20:54:21;17.73;;;7.68;;
59207;SDS011;44977;53.132;6.408;2023-02-18T20:59:21;18.52;;;7.05;;
59207;SDS011;44977;53.132;6.408;2023-02-18T21:04:23;20.15;;;6.78;;
59207;SDS011;44977;53.132;6.408;2023-02-18T21:09:24;18.05;;;7.07;;
59207;SDS011;44977;53.132;6.408;2023-02-18T21:14:24;20.75;;;7.68;;
59207;SDS011;44977;53.132;6.408;2023-02-18T21:19:25;18.83;;;7.60;;
59207;SDS011;44977;53.132;6.408;2023-02-18T21:24:26;20.48;;;7.63;;
59207;SDS011;44977;53.132;6.408;2023-02-18T21:29:27;17.80;;;7.13;;
59207;SDS011;44977;53.132;6.408;2023-02-18T21:34:28;18.50;;;7.25;;
59207;SDS011;44977;53.132;6.408;2023-02-18T21:39:28;18.88;;;6.43;;
59207;SDS011;44977;53.132;6.408;2023-02-18T21:44:29;16.30;;;7.32;;
59207;SDS011;44977;53.132;6.408;2023-02-18T21:49:30;19.10;;;8.65;;
59207;SDS011;44977;53.132;6.408;2023-02-18T21:54:34;23.05;;;10.15;;
59207;SDS011;44977;53.132;6.408;2023-02-18T21:59:38;20.75;;;9.38;;
59207;SDS011;44977;53.132;6.408;2023-02-18T22:04:40;19.60;;;9.10;;
59207;SDS011;44977;53.132;6.408;2023-02-18T22:09:40;20.35;;;11.50;;
59207;SDS011;44977;53.132;6.408;2023-02-18T22:14:41;23.98;;;13.15;;
59207;SDS011;44977;53.132;6.408;2023-02-18T22:19:43;27.40;;;16.52;;
59207;SDS011;44977;53.132;6.408;2023-02-18T22:24:45;31.58;;;17.40;;
59207;SDS011;44977;53.132;6.408;2023-02-18T22:29:45;29.50;;;18.00;;
59207;SDS011;44977;53.132;6.408;2023-02-18T22:34:46;25.30;;;17.25;;
59207;SDS011;44977;53.132;6.408;2023-02-18T22:39:47;28.55;;;17.83;;
59207;SDS011;44977;53.132;6.408;2023-02-18T22:44:48;28.70;;;17.40;;
59207;SDS011;44977;53.132;6.408;2023-02-18T22:49:49;27.63;;;17.83;;
59207;SDS011;44977;53.132;6.408;2023-02-18T22:54:49;27.77;;;17.55;;
59207;SDS011;44977;53.132;6.408;2023-02-18T22:59:50;26.13;;;17.17;;
59207;SDS011;44977;53.132;6.408;2023-02-18T23:04:51;24.88;;;16.08;;
59207;SDS011;44977;53.132;6.408;2023-02-18T23:09:52;24.40;;;15.52;;
59207;SDS011;44977;53.132;6.408;2023-02-18T23:14:52;26.52;;;15.93;;
59207;SDS011;44977;53.132;6.408;2023-02-18T23:19:53;25.00;;;14.90;;
59207;SDS011;44977;53.132;6.408;2023-02-18T23:24:54;23.27;;;14.23;;
59207;SDS011;44977;53.132;6.408;2023-02-18T23:29:55;23.90;;;15.05;;
59207;SDS011;44977;53.132;6.408;2023-02-18T23:34:56;24.88;;;14.68;;
59207;SDS011;44977;53.132;6.408;2023-02-18T23:39:56;24.35;;;15.13;;
59207;SDS011;44977;53.132;6.408;2023-02-18T23:44:57;25.38;;;14.32;;
59207;SDS011;44977;53.132;6.408;2023-02-18T23:49:58;25.23;;;14.15;;
59207;SDS011;44977;53.132;6.408;2023-02-18T23:54:58;22.65;;;13.30;;
59207;SDS011;44977;53.132;6.408;2023-02-18T23:59:59;19.23;;;12.40;;
